Time;durP1;ratioP1;P1;durP2;ratioP2;P2;SDS_P1;SDS_P2;PMS_P1;PMS_P2;Temp;Humidity;BMP_temperature;BMP_pressure;BME280_temperature;BME280_humidity;BME280_pressure;Samples;Min_cycle;Max_cycle;Signal;HPM_P1;HPM_P2
2022/04/12 00:00:24;;;;;;;;;;;;;;;15.52;57.94;100891.56;1039823;28;1136;-68
2022/04/12 00:01:14;;;;;;;;;;;;;;;15.50;57.28;100893.50;1039800;28;1102;-67
2022/04/12 00:02:05;;;;;;;;;;;;;;;15.51;57.62;100889.84;1039696;28;1112;-68
2022/04/12 00:02:56;;;;;;;;;;;;;;;15.51;57.56;100894.38;1040451;28;1173;-68
2022/04/12 00:03:46;;;;;;;;;;;;;;;15.49;57.90;100878.38;1040969;28;1260;-67
2022/04/12 00:04:36;;;;;;;;;;;;;;;15.48;57.22;100873.13;1040066;28;1122;-65
2022/04/12 00:05:27;;;;;;;;;;;;;;;15.49;57.72;100881.06;1040893;28;1272;-66
2022/04/12 00:06:17;;;;;;;;;;;;;;;15.48;57.66;100884.72;1040191;28;1150;-66
2022/04/12 00:07:08;;;;;;;;;;;;;;;15.48;57.59;100882.03;1039769;28;1111;-67
2022/04/12 00:07:58;;;;;;;;;;;;;;;15.47;57.32;100888.41;1047634;28;1098;-69
2022/04/12 00:08:49;;;;;;;;;;;;;;;15.46;57.39;100885.84;1045669;28;1078;-66
2022/04/12 00:09:39;;;;;;;;;;;;;;;15.46;57.72;100880.47;1041097;28;1191;-67
2022/04/12 00:10:29;;;;;;;;;;;;;;;15.46;57.59;100883.16;1040853;28;1198;-68
2022/04/12 00:11:20;;;;;;;;;;;;;;;15.45;57.55;100887.66;1036604;28;607;-68
2022/04/12 00:12:10;;;;;;;;;;;;;;;15.46;57.32;100886.69;1037168;28;658;-67
2022/04/12 00:13:01;;;;;;;;;;;;;;;15.44;57.40;100880.59;1037128;28;615;-65
2022/04/12 00:13:51;;;;;;;;;;;;;;;15.44;57.77;100877.91;1037169;28;638;-66
2022/04/12 00:14:42;;;;;;;;;;;;;;;15.44;57.40;100875.22;1037123;28;686;-66
2022/04/12 00:15:33;;;;;;;;;;;;;;;15.44;57.80;100877.91;1036514;28;655;-65
2022/04/12 00:16:23;;;;;;;;;;;;;;;15.44;57.33;100877.91;1037060;28;531;-65
2022/04/12 00:19:31;;;;;;;;;;;;;;;15.42;57.61;100869.13;1036123;28;635;-64
2022/04/12 00:20:24;;;;;;;;;;;;;;;15.42;57.61;100868.28;1037156;28;623;-64
2022/04/12 00:21:15;;;;;;;;;;;;;;;15.42;57.27;100866.44;1036453;28;784;-65
2022/04/12 00:22:05;;;;;;;;;;;;;;;15.41;57.38;100858.50;1037072;28;701;-64
2022/04/12 00:22:55;;;;;;;;;;;;;;;15.41;57.54;100856.69;1036962;28;1439;-66
2022/04/12 00:23:46;;;;;;;;;;;;;;;15.41;57.20;100855.81;1036606;28;591;-70
2022/04/12 00:24:37;;;;;;;;;;;;;;;15.41;57.21;100855.81;1036585;28;594;-70
2022/04/12 00:25:27;;;;;;;;;;;;;;;15.41;57.57;100863.88;1037138;28;733;-66
2022/04/12 00:26:18;;;;;;;;;;;;;;;15.40;57.37;100860.38;1037079;28;661;-68
2022/04/12 00:27:08;;;;;;;;;;;;;;;15.40;57.44;100868.44;1036448;28;631;-68
2022/04/12 00:27:59;;;;;;;;;;;;;;;15.39;57.21;100864.03;1037028;28;631;-68
2022/04/12 00:28:49;;;;;;;;;;;;;;;15.39;57.16;100866.72;1037214;28;626;-68
2022/04/12 00:29:40;;;;;;;;;;;;;;;15.39;57.41;100868.56;1036642;28;607;-68
2022/04/12 00:30:30;;;;;;;;;;;;;;;15.39;57.45;100869.41;1036488;28;694;-68
2022/04/12 00:31:20;;;;;;;;;;;;;;;15.39;57.48;100868.56;1036440;28;635;-68
2022/04/12 00:32:11;;;;;;;;;;;;;;;15.38;57.57;100870.38;1036957;28;701;-68
2022/04/12 00:33:01;;;;;;;;;;;;;;;15.38;57.73;100877.59;1036348;28;1180;-67
2022/04/12 00:33:52;;;;;;;;;;;;;;;15.38;57.70;100867.69;1035887;28;646;-68
2022/04/12 00:34:42;;;;;;;;;;;;;;;15.37;57.72;100871.38;1036453;28;628;-68
2022/04/12 00:35:33;;;;;;;;;;;;;;;15.38;57.32;100873.06;1036951;28;649;-69
2022/04/12 00:36:24;;;;;;;;;;;;;;;15.37;57.33;100866.00;1036461;28;689;-68
2022/04/12 00:37:14;;;;;;;;;;;;;;;15.37;57.48;100867.84;1037053;28;768;-69
2022/04/12 00:38:23;;;;;;;;;;;;;;;15.37;57.70;100863.31;1036926;28;713;-68
2022/04/12 00:39:14;;;;;;;;;;;;;;;15.37;57.71;100865.16;1037009;28;627;-68
2022/04/12 00:40:04;;;;;;;;;;;;;;;15.36;57.58;100869.66;1036490;28;670;-68
2022/04/12 00:40:55;;;;;;;;;;;;;;;15.35;57.13;100867.97;1036321;28;674;-69
2022/04/12 00:41:45;;;;;;;;;;;;;;;15.35;57.21;100872.47;1044606;28;669;-68
2022/04/12 00:42:36;;;;;;;;;;;;;;;15.35;57.61;100873.31;1044381;28;760;-70
2022/04/12 00:43:27;;;;;;;;;;;;;;;15.35;57.26;100867.97;1036607;28;745;-69
2022/04/12 00:44:17;;;;;;;;;;;;;;;15.34;57.40;100877.00;1036397;28;639;-69
2022/04/12 00:45:07;;;;;;;;;;;;;;;15.34;57.15;100882.38;1036507;28;702;-68
2022/04/12 00:46:00;;;;;;;;;;;;;;;15.34;57.89;100882.38;1036341;28;623;-68
2022/04/12 00:46:50;;;;;;;;;;;;;;;15.34;57.70;100877.00;1037041;28;650;-68
2022/04/12 00:47:41;;;;;;;;;;;;;;;15.33;57.44;100879.81;1036323;28;804;-69
2022/04/12 00:48:31;;;;;;;;;;;;;;;15.33;57.67;100885.19;1036455;28;1998;-69
2022/04/12 00:49:23;;;;;;;;;;;;;;;15.32;57.47;100883.47;1036496;28;646;-69
2022/04/12 00:50:13;;;;;;;;;;;;;;;15.32;57.06;100878.94;1036959;28;689;-69
2022/04/12 00:51:04;;;;;;;;;;;;;;;15.32;57.14;100878.94;1035761;28;862;-68
2022/04/12 00:51:54;;;;;;;;;;;;;;;15.31;57.54;100885.31;1037010;28;760;-68
2022/04/12 00:52:45;;;;;;;;;;;;;;;15.31;57.43;100884.44;1038358;28;1636;-68
2022/04/12 00:53:35;;;;;;;;;;;;;;;15.30;57.57;100886.28;1044586;28;685;-67
2022/04/12 00:54:26;;;;;;;;;;;;;;;15.31;57.28;100879.94;1044603;28;666;-68
2022/04/12 00:55:16;;;;;;;;;;;;;;;15.30;57.31;100883.59;1044652;28;649;-68
2022/04/12 00:56:07;;;;;;;;;;;;;;;15.30;57.37;100875.53;1044688;28;673;-67
2022/04/12 00:56:57;;;;;;;;;;;;;;;15.30;57.22;100886.28;1044570;28;668;-67
2022/04/12 00:57:48;;;;;;;;;;;;;;;15.29;57.22;100887.25;1044555;28;626;-69
2022/04/12 00:58:38;;;;;;;;;;;;;;;15.29;57.17;100889.94;1044551;28;693;-68
2022/04/12 00:59:29;;;;;;;;;;;;;;;15.29;57.42;100881.88;1043943;28;703;-68
2022/04/12 01:00:19;;;;;;;;;;;;;;;15.29;57.25;100881.88;1044596;28;666;-69
2022/04/12 01:01:10;;;;;;;;;;;;;;;15.28;57.21;100893.59;1044541;28;658;-69
2022/04/12 01:02:00;;;;;;;;;;;;;;;15.27;57.12;100883.84;1044543;28;743;-69
2022/04/12 01:02:51;;;;;;;;;;;;;;;15.27;57.37;100889.22;1044170;28;610;-69
2022/04/12 01:03:41;;;;;;;;;;;;;;;15.26;57.63;100883.00;1044526;28;689;-68
2022/04/12 01:04:31;;;;;;;;;;;;;;;15.26;57.49;100884.81;1044673;28;700;-68
2022/04/12 01:05:22;;;;;;;;;;;;;;;15.25;57.51;100883.97;1044488;28;754;-68
2022/04/12 01:06:13;;;;;;;;;;;;;;;15.25;57.34;100881.28;1044579;28;657;-68
2022/04/12 01:07:03;;;;;;;;;;;;;;;15.25;57.05;100886.66;1044570;28;681;-68
2022/04/12 01:07:54;;;;;;;;;;;;;;;15.24;57.43;100874.22;1044643;28;690;-67
2022/04/12 01:08:44;;;;;;;;;;;;;;;15.24;57.11;100881.41;1044507;28;900;-69
2022/04/12 01:09:35;;;;;;;;;;;;;;;15.24;57.25;100881.41;1044563;28;724;-68
2022/04/12 01:10:25;;;;;;;;;;;;;;;15.24;56.88;100886.78;1044582;28;618;-68
2022/04/12 01:11:16;;;;;;;;;;;;;;;15.24;57.04;100884.09;1044536;28;689;-68
2022/04/12 01:12:09;;;;;;;;;;;;;;;15.22;57.48;100886.94;1044090;28;693;-68
2022/04/12 01:12:59;;;;;;;;;;;;;;;15.23;57.57;100888.63;1044022;28;693;-68
2022/04/12 01:13:50;;;;;;;;;;;;;;;15.23;57.50;100890.44;1044764;28;606;-67
2022/04/12 01:14:40;;;;;;;;;;;;;;;15.22;57.35;100886.09;1044841;28;780;-67
2022/04/12 01:15:31;;;;;;;;;;;;;;;15.21;57.19;100887.91;1044647;28;599;-67
2022/04/12 01:16:21;;;;;;;;;;;;;;;15.22;57.42;100884.25;1044518;28;698;-68
2022/04/12 01:17:12;;;;;;;;;;;;;;;15.22;57.01;100883.41;1044106;28;555;-68
2022/04/12 01:18:02;;;;;;;;;;;;;;;15.22;57.15;100878.03;1044578;28;661;-70
2022/04/12 01:18:53;;;;;;;;;;;;;;;15.20;57.35;100882.69;1044584;28;859;-69
2022/04/12 01:19:43;;;;;;;;;;;;;;;15.21;57.18;100879.00;1044502;28;698;-68
2022/04/12 01:20:34;;;;;;;;;;;;;;;15.20;56.97;100877.31;1044922;28;744;-70
2022/04/12 01:21:24;;;;;;;;;;;;;;;15.20;57.01;100880.00;1044242;28;669;-69
2022/04/12 01:22:14;;;;;;;;;;;;;;;15.20;57.23;100882.69;1044236;28;658;-69
2022/04/12 01:23:05;;;;;;;;;;;;;;;15.19;56.78;100879.13;1041055;28;1486;-69
2022/04/12 01:23:55;;;;;;;;;;;;;;;15.19;57.18;100884.50;1040454;28;778;-69
2022/04/12 01:24:46;;;;;;;;;;;;;;;15.20;57.25;100880.00;1041031;28;649;-70
2022/04/12 01:25:37;;;;;;;;;;;;;;;15.19;56.86;100883.66;1041223;28;1597;-69
2022/04/12 01:26:27;;;;;;;;;;;;;;;15.18;57.31;100882.81;1041034;28;634;-69
2022/04/12 01:27:18;;;;;;;;;;;;;;;15.17;57.02;100878.41;1041581;28;766;-70
2022/04/12 01:28:08;;;;;;;;;;;;;;;15.17;56.96;100886.47;1041821;28;716;-70
2022/04/12 01:28:58;;;;;;;;;;;;;;;15.18;57.48;100887.31;1041777;28;688;-69
2022/04/12 01:29:49;;;;;;;;;;;;;;;15.17;57.30;100877.56;1041613;28;681;-69
2022/04/12 01:30:40;;;;;;;;;;;;;;;15.16;57.25;100883.91;1042426;28;688;-69
2022/04/12 01:31:30;;;;;;;;;;;;;;;15.14;56.93;100875.97;1042353;28;685;-69
2022/04/12 01:32:21;;;;;;;;;;;;;;;15.16;57.42;100875.84;1042249;28;688;-70
2022/04/12 01:33:11;;;;;;;;;;;;;;;15.16;57.07;100879.38;1041254;28;1203;-69
2022/04/12 01:34:02;;;;;;;;;;;;;;;15.16;56.60;100873.16;1041909;28;689;-70
2022/04/12 01:34:52;;;;;;;;;;;;;;;15.15;57.00;100868.78;1041825;28;685;-70
2022/04/12 01:35:43;;;;;;;;;;;;;;;15.15;57.10;100874.16;1041660;28;724;-70
2022/04/12 01:36:33;;;;;;;;;;;;;;;15.14;57.09;100869.75;1041808;28;606;-69
2022/04/12 01:37:25;;;;;;;;;;;;;;;15.14;57.11;100875.97;1042295;28;701;-69
2022/04/12 01:38:15;;;;;;;;;;;;;;;15.14;57.27;100870.59;1042261;28;666;-70
2022/04/12 01:39:06;;;;;;;;;;;;;;;15.13;57.51;100863.53;1042301;28;673;-69
2022/04/12 01:39:56;;;;;;;;;;;;;;;15.12;56.83;100871.72;1042344;28;678;-70
2022/04/12 01:40:46;;;;;;;;;;;;;;;15.13;57.29;100873.41;1042306;28;779;-71
2022/04/12 01:41:37;;;;;;;;;;;;;;;15.12;57.28;100874.41;1042382;28;688;-70
2022/04/12 01:42:27;;;;;;;;;;;;;;;15.12;57.02;100871.72;1042223;28;658;-70
2022/04/12 01:43:18;;;;;;;;;;;;;;;15.12;57.43;100871.72;1042211;28;701;-68
2022/04/12 01:44:08;;;;;;;;;;;;;;;15.11;57.21;100865.50;1041672;28;672;-68
2022/04/12 01:44:58;;;;;;;;;;;;;;;15.11;56.79;100864.63;1041747;28;717;-68
2022/04/12 01:45:49;;;;;;;;;;;;;;;15.10;56.89;100866.47;1041710;28;670;-69
2022/04/12 01:46:39;;;;;;;;;;;;;;;15.11;57.03;100862.81;1042231;28;740;-69
2022/04/12 01:47:30;;;;;;;;;;;;;;;15.10;57.23;100863.78;1042194;28;638;-69
2022/04/12 01:48:20;;;;;;;;;;;;;;;15.10;56.72;100858.41;1042100;28;1918;-68
2022/04/12 01:49:11;;;;;;;;;;;;;;;15.10;57.09;100860.25;1042215;28;630;-68
2022/04/12 01:50:01;;;;;;;;;;;;;;;15.09;57.25;100856.72;1042189;28;861;-69
2022/04/12 01:50:51;;;;;;;;;;;;;;;15.09;57.17;100859.41;1038351;28;1195;-70
2022/04/12 01:51:42;;;;;;;;;;;;;;;15.09;57.04;100855.84;1036352;28;594;-69
2022/04/12 01:52:32;;;;;;;;;;;;;;;15.09;56.98;100862.06;1037510;28;1475;-69
2022/04/12 01:53:23;;;;;;;;;;;;;;;15.09;56.81;100861.22;1041314;28;705;-69
2022/04/12 01:54:13;;;;;;;;;;;;;;;15.09;57.30;100858.53;1042033;28;626;-71
2022/04/12 01:55:04;;;;;;;;;;;;;;;15.09;56.96;100861.22;1041633;28;693;-70
2022/04/12 01:55:54;;;;;;;;;;;;;;;15.08;56.80;100854.16;1042279;28;642;-70
2022/04/12 01:56:44;;;;;;;;;;;;;;;15.08;56.81;100859.53;1041960;28;1545;-70
2022/04/12 01:57:35;;;;;;;;;;;;;;;15.07;57.21;100849.75;1041670;28;697;-70
2022/04/12 01:58:25;;;;;;;;;;;;;;;15.08;56.99;100859.53;1042259;28;638;-69
2022/04/12 01:59:16;;;;;;;;;;;;;;;15.07;56.76;100847.09;1042170;28;658;-71
2022/04/12 02:00:06;;;;;;;;;;;;;;;15.07;57.02;100850.63;1041580;28;634;-70
2022/04/12 02:00:56;;;;;;;;;;;;;;;15.06;57.11;100856.09;1041626;28;634;-68
2022/04/12 02:01:47;;;;;;;;;;;;;;;15.06;56.69;100856.97;1041636;28;685;-68
2022/04/12 02:02:37;;;;;;;;;;;;;;;15.06;56.60;100856.97;1041522;28;630;-68
2022/04/12 02:03:28;;;;;;;;;;;;;;;15.06;56.74;100856.97;1041608;28;627;-67
2022/04/12 02:04:18;;;;;;;;;;;;;;;15.05;56.92;100849.88;1041564;28;643;-66
2022/04/12 02:05:08;;;;;;;;;;;;;;;15.05;56.24;100852.56;1041963;28;1438;-66
2022/04/12 02:05:59;;;;;;;;;;;;;;;15.05;57.19;100855.25;1040911;28;665;-67
2022/04/12 02:06:49;;;;;;;;;;;;;;;15.05;56.67;100849.06;1040992;28;670;-66
2022/04/12 02:07:40;;;;;;;;;;;;;;;15.05;56.94;100843.69;1041121;28;622;-66
2022/04/12 02:08:30;;;;;;;;;;;;;;;15.04;56.75;100845.53;1041193;28;1989;-67
2022/04/12 02:09:20;;;;;;;;;;;;;;;15.04;56.69;100842.84;1040702;28;925;-68
2022/04/12 02:10:11;;;;;;;;;;;;;;;15.04;57.01;100852.72;1040962;28;596;-68
2022/04/12 02:11:01;;;;;;;;;;;;;;;15.04;57.21;100850.06;1040970;28;698;-68
2022/04/12 02:11:53;;;;;;;;;;;;;;;15.03;57.19;100849.19;1041050;28;769;-67
2022/04/12 02:12:43;;;;;;;;;;;;;;;15.03;56.82;100845.66;1040494;28;669;-68
2022/04/12 02:13:34;;;;;;;;;;;;;;;15.03;56.88;100842.97;1041249;28;626;-67
2022/04/12 02:14:24;;;;;;;;;;;;;;;15.02;57.06;100846.63;1040673;28;677;-67
2022/04/12 02:15:15;;;;;;;;;;;;;;;15.02;56.78;100843.94;1040774;28;694;-67
2022/04/12 02:16:05;;;;;;;;;;;;;;;15.02;56.63;100852.00;1040571;28;666;-67
2022/04/12 02:16:55;;;;;;;;;;;;;;;15.02;56.93;100852.00;1040680;28;677;-68
2022/04/12 02:17:46;;;;;;;;;;;;;;;15.01;56.97;100845.78;1040849;28;766;-67
2022/04/12 02:18:36;;;;;;;;;;;;;;;15.00;56.65;100849.44;1040911;28;682;-67
2022/04/12 02:19:27;;;;;;;;;;;;;;;15.01;57.00;100850.31;1041026;28;674;-67
2022/04/12 02:20:17;;;;;;;;;;;;;;;15.00;57.10;100843.22;1040921;28;689;-67
2022/04/12 02:21:07;;;;;;;;;;;;;;;14.99;56.81;100850.44;1040978;28;677;-66
2022/04/12 02:21:58;;;;;;;;;;;;;;;14.99;56.91;100845.06;1040812;28;599;-66
2022/04/12 02:22:48;;;;;;;;;;;;;;;14.99;56.84;100847.75;1040698;28;1498;-66
2022/04/12 02:23:39;;;;;;;;;;;;;;;14.99;57.27;100838.84;1041132;28;705;-67
2022/04/12 02:24:30;;;;;;;;;;;;;;;14.99;56.76;100846.88;1041799;28;622;-66
2022/04/12 02:25:21;;;;;;;;;;;;;;;14.99;56.58;100844.19;1040957;28;710;-66
2022/04/12 02:26:12;;;;;;;;;;;;;;;14.98;56.90;100842.50;1041388;28;646;-67
2022/04/12 02:27:02;;;;;;;;;;;;;;;14.99;57.04;100844.19;1041152;28;610;-66
2022/04/12 02:27:53;;;;;;;;;;;;;;;14.98;56.60;100837.97;1041171;28;619;-67
2022/04/12 02:28:43;;;;;;;;;;;;;;;14.96;57.20;100829.22;1040920;28;1942;-67
2022/04/12 02:29:33;;;;;;;;;;;;;;;14.97;56.46;100838.09;1041445;28;653;-67
2022/04/12 02:30:24;;;;;;;;;;;;;;;14.96;56.86;100845.31;1042112;28;629;-67
2022/04/12 02:31:14;;;;;;;;;;;;;;;14.97;56.71;100838.09;1042162;28;704;-67
2022/04/12 02:32:05;;;;;;;;;;;;;;;14.96;57.13;100836.41;1041894;28;967;-66
2022/04/12 02:32:57;;;;;;;;;;;;;;;14.96;56.69;100833.72;1041192;28;662;-67
2022/04/12 02:33:47;;;;;;;;;;;;;;;14.95;56.82;100835.56;1041154;28;836;-67
2022/04/12 02:34:38;;;;;;;;;;;;;;;14.94;56.66;100831.16;1041388;28;716;-67
2022/04/12 02:35:28;;;;;;;;;;;;;;;14.93;56.94;100833.00;1041431;28;634;-67
2022/04/12 02:36:19;;;;;;;;;;;;;;;14.93;56.94;100830.31;1041919;28;692;-67
2022/04/12 02:37:09;;;;;;;;;;;;;;;14.93;57.07;100832.13;1042013;28;666;-67
2022/04/12 02:38:00;;;;;;;;;;;;;;;14.93;57.32;100834.81;1041521;28;594;-67
2022/04/12 02:38:50;;;;;;;;;;;;;;;14.91;57.15;100837.63;1041955;28;689;-67
2022/04/12 02:39:40;;;;;;;;;;;;;;;14.93;56.81;100842.88;1041518;28;555;-66
2022/04/12 02:40:32;;;;;;;;;;;;;;;14.92;56.83;100838.47;1041412;28;681;-69
2022/04/12 02:41:22;;;;;;;;;;;;;;;14.91;56.50;100840.31;1042041;28;677;-68
2022/04/12 02:42:12;;;;;;;;;;;;;;;14.91;57.38;100834.94;1042092;28;768;-68
2022/04/12 02:43:03;;;;;;;;;;;;;;;14.91;56.74;100839.47;1041415;28;673;-68
2022/04/12 02:43:53;;;;;;;;;;;;;;;14.90;56.87;100838.59;1041993;28;661;-69
2022/04/12 02:44:44;;;;;;;;;;;;;;;14.89;56.92;100831.53;1041950;28;657;-69
2022/04/12 02:45:34;;;;;;;;;;;;;;;14.88;56.82;100824.47;1042041;28;713;-69
2022/04/12 02:46:25;;;;;;;;;;;;;;;14.88;57.07;100823.59;1041471;28;658;-69
2022/04/12 02:47:15;;;;;;;;;;;;;;;14.88;56.90;100829.84;1042051;28;638;-68
2022/04/12 02:48:08;;;;;;;;;;;;;;;14.88;56.85;100829.84;1041458;28;606;-69
2022/04/12 02:48:59;;;;;;;;;;;;;;;14.88;56.77;100824.47;1042009;28;716;-68
2022/04/12 02:49:49;;;;;;;;;;;;;;;14.87;56.71;100819.22;1042021;28;801;-68
2022/04/12 02:50:40;;;;;;;;;;;;;;;14.87;56.74;100825.44;1040384;28;1300;-69
2022/04/12 02:51:30;;;;;;;;;;;;;;;14.87;57.10;100825.44;1036333;28;679;-69
2022/04/12 02:52:21;;;;;;;;;;;;;;;14.87;56.90;100825.44;1037300;28;542;-69
2022/04/12 02:53:11;;;;;;;;;;;;;;;14.86;57.17;100826.44;1036897;28;665;-69
2022/04/12 02:54:02;;;;;;;;;;;;;;;14.85;57.00;100822.06;1037044;28;705;-69
2022/04/12 02:54:52;;;;;;;;;;;;;;;14.85;56.66;100822.06;1045615;28;1339;-68
2022/04/12 02:55:43;;;;;;;;;;;;;;;14.84;56.99;100806.09;1044683;28;736;-68
2022/04/12 02:56:33;;;;;;;;;;;;;;;14.84;56.34;100820.34;1036835;28;750;-68
2022/04/12 02:57:23;;;;;;;;;;;;;;;14.84;56.95;100820.34;1036737;28;689;-68
2022/04/12 02:58:14;;;;;;;;;;;;;;;14.83;57.15;100818.66;1037870;28;1008;-69
2022/04/12 02:59:04;;;;;;;;;;;;;;;14.82;56.79;100816.94;1036325;28;666;-69
2022/04/12 02:59:55;;;;;;;;;;;;;;;14.83;56.59;100826.69;1037832;28;707;-69
2022/04/12 03:00:45;;;;;;;;;;;;;;;14.83;56.30;100824.03;1037961;28;705;-69
2022/04/12 03:01:36;;;;;;;;;;;;;;;14.83;56.47;100818.66;1037808;28;665;-69
2022/04/12 03:02:26;;;;;;;;;;;;;;;14.83;56.79;100817.81;1037889;28;622;-68
2022/04/12 03:03:16;;;;;;;;;;;;;;;14.82;56.21;100805.38;1037382;28;783;-69
2022/04/12 03:04:07;;;;;;;;;;;;;;;14.81;56.76;100809.88;1037941;28;724;-68
2022/04/12 03:04:57;;;;;;;;;;;;;;;14.80;56.53;100800.13;1037858;28;681;-68
2022/04/12 03:05:48;;;;;;;;;;;;;;;14.81;56.88;100809.03;1037772;28;661;-69
2022/04/12 03:06:38;;;;;;;;;;;;;;;14.81;56.16;100807.19;1037903;28;638;-70
2022/04/12 03:07:28;;;;;;;;;;;;;;;14.80;56.50;100805.50;1037956;28;871;-69
2022/04/12 03:08:19;;;;;;;;;;;;;;;14.79;56.91;100803.78;1037830;28;1898;-68
2022/04/12 03:09:09;;;;;;;;;;;;;;;14.80;56.46;100801.94;1037877;28;579;-67
2022/04/12 03:10:00;;;;;;;;;;;;;;;14.79;56.56;100795.72;1037733;28;704;-68
2022/04/12 03:10:50;;;;;;;;;;;;;;;14.79;56.77;100806.47;1037826;28;572;-68
2022/04/12 03:11:41;;;;;;;;;;;;;;;14.79;56.81;100808.28;1036774;28;658;-69
2022/04/12 03:12:31;;;;;;;;;;;;;;;14.79;56.45;100801.09;1037993;28;653;-69
2022/04/12 03:13:22;;;;;;;;;;;;;;;14.78;56.45;100799.41;1037406;28;653;-69
2022/04/12 03:14:12;;;;;;;;;;;;;;;14.77;56.37;100800.38;1036634;28;634;-67
2022/04/12 03:15:03;;;;;;;;;;;;;;;14.78;56.77;100796.72;1037896;28;654;-67
2022/04/12 03:15:53;;;;;;;;;;;;;;;14.77;56.26;100795.00;1037828;28;701;-67
2022/04/12 03:16:43;;;;;;;;;;;;;;;14.77;56.24;100789.63;1037782;28;650;-67
2022/04/12 03:17:34;;;;;;;;;;;;;;;14.77;56.46;100794.16;1036363;28;674;-67
2022/04/12 03:18:25;;;;;;;;;;;;;;;14.78;56.26;100795.84;1037621;28;708;-67
2022/04/12 03:19:15;;;;;;;;;;;;;;;14.78;56.79;100801.22;1036664;28;678;-68
2022/04/12 03:20:05;;;;;;;;;;;;;;;14.78;56.39;100795.84;1036274;28;634;-68
2022/04/12 03:20:56;;;;;;;;;;;;;;;14.77;55.98;100797.69;1037445;28;656;-68
2022/04/12 03:21:46;;;;;;;;;;;;;;;14.77;56.18;100792.31;1037778;28;594;-68
2022/04/12 03:22:37;;;;;;;;;;;;;;;14.77;56.18;100789.63;1041077;28;1523;-67
2022/04/12 03:23:27;;;;;;;;;;;;;;;14.77;56.73;100786.09;1040638;28;630;-68
2022/04/12 03:24:18;;;;;;;;;;;;;;;14.75;56.58;100786.22;1040502;28;1529;-67
2022/04/12 03:25:09;;;;;;;;;;;;;;;14.75;56.15;100786.22;1040626;28;607;-67
2022/04/12 03:25:59;;;;;;;;;;;;;;;14.74;56.66;100795.25;1040676;28;690;-67
2022/04/12 03:26:49;;;;;;;;;;;;;;;14.75;56.78;100793.44;1040711;28;689;-67
2022/04/12 03:27:40;;;;;;;;;;;;;;;14.75;56.42;100798.78;1040321;28;693;-67
2022/04/12 03:28:30;;;;;;;;;;;;;;;14.74;56.18;100792.56;1040549;28;1975;-67
2022/04/12 03:29:21;;;;;;;;;;;;;;;14.73;56.16;100796.22;1040845;28;710;-67
2022/04/12 03:30:11;;;;;;;;;;;;;;;14.74;56.45;100797.09;1040709;28;674;-66
2022/04/12 03:31:02;;;;;;;;;;;;;;;14.73;56.74;100798.06;1040790;28;662;-68
2022/04/12 03:31:52;;;;;;;;;;;;;;;14.73;56.23;100792.69;1040625;28;654;-68
2022/04/12 03:32:42;;;;;;;;;;;;;;;14.72;56.38;100793.69;1040667;28;638;-66
2022/04/12 03:33:33;;;;;;;;;;;;;;;14.73;56.73;100796.22;1040814;28;717;-68
2022/04/12 03:34:23;;;;;;;;;;;;;;;14.72;56.33;100789.16;1040750;28;678;-65
2022/04/12 03:35:14;;;;;;;;;;;;;;;14.72;56.88;100788.31;1040743;28;740;-67
2022/04/12 03:36:04;;;;;;;;;;;;;;;14.72;56.25;100793.69;1040662;28;674;-67
2022/04/12 03:36:55;;;;;;;;;;;;;;;14.72;57.08;100794.53;1040702;28;603;-67
2022/04/12 03:37:45;;;;;;;;;;;;;;;14.71;56.04;100798.19;1040122;28;681;-67
2022/04/12 03:38:36;;;;;;;;;;;;;;;14.71;56.56;100792.81;1040685;28;712;-67
2022/04/12 03:39:26;;;;;;;;;;;;;;;14.71;56.73;100797.34;1040876;28;626;-67
2022/04/12 03:40:18;;;;;;;;;;;;;;;14.70;56.31;100791.13;1040938;28;697;-66
2022/04/12 03:41:08;;;;;;;;;;;;;;;14.70;56.41;100792.94;1041236;28;650;-66
2022/04/12 03:41:59;;;;;;;;;;;;;;;14.70;56.68;100792.94;1040736;28;595;-66
2022/04/12 03:42:49;;;;;;;;;;;;;;;14.69;55.99;100789.41;1040661;28;686;-66
2022/04/12 03:43:40;;;;;;;;;;;;;;;14.69;56.01;100789.41;1040680;28;630;-66
2022/04/12 03:44:30;;;;;;;;;;;;;;;14.68;55.96;100787.75;1040662;28;610;-67
2022/04/12 03:45:21;;;;;;;;;;;;;;;14.69;56.39;100780.53;1040231;28;941;-66
2022/04/12 03:46:11;;;;;;;;;;;;;;;14.68;56.54;100789.56;1040662;28;650;-66
2022/04/12 03:47:02;;;;;;;;;;;;;;;14.68;56.44;100784.22;1040735;28;701;-67
2022/04/12 03:47:52;;;;;;;;;;;;;;;14.68;56.75;100789.56;1040733;28;611;-67
2022/04/12 03:48:43;;;;;;;;;;;;;;;14.67;56.83;100791.41;1040699;28;1906;-67
2022/04/12 03:49:34;;;;;;;;;;;;;;;14.67;56.31;100796.75;1040731;28;713;-67
2022/04/12 03:50:24;;;;;;;;;;;;;;;14.66;56.29;100795.06;1040603;28;660;-68
2022/04/12 03:51:14;;;;;;;;;;;;;;;14.66;56.53;100789.69;1037021;28;658;-68
2022/04/12 03:52:05;;;;;;;;;;;;;;;14.66;56.53;100789.69;1036597;28;682;-68
2022/04/12 03:52:55;;;;;;;;;;;;;;;14.65;56.60;100790.66;1038211;28;1308;-68
2022/04/12 03:53:46;;;;;;;;;;;;;;;14.64;56.79;100788.97;1041701;28;720;-68
2022/04/12 03:54:36;;;;;;;;;;;;;;;14.63;56.60;100784.56;1041227;28;642;-68
2022/04/12 03:55:35;;;;;;;;;;;;;;;14.63;56.84;100776.53;1041755;28;606;-68
2022/04/12 03:56:27;;;;;;;;;;;;;;;14.63;56.42;100775.69;1040917;28;677;-68
2022/04/12 03:57:18;;;;;;;;;;;;;;;14.62;56.45;100784.69;1045006;28;693;-68
2022/04/12 03:58:08;;;;;;;;;;;;;;;14.64;55.74;100780.91;1048593;28;599;-68
2022/04/12 03:58:59;;;;;;;;;;;;;;;14.68;55.82;100777.00;1040998;28;650;-68
2022/04/12 03:59:49;;;;;;;;;;;;;;;14.71;55.96;100767.84;1041729;28;630;-68
2022/04/12 04:00:40;;;;;;;;;;;;;;;14.75;55.89;100769.28;1041826;28;665;-67
2022/04/12 04:01:30;;;;;;;;;;;;;;;14.82;55.78;100770.50;1041195;28;677;-68
2022/04/12 04:02:21;;;;;;;;;;;;;;;14.93;55.76;100765.91;1041782;28;600;-68
2022/04/12 04:03:11;;;;;;;;;;;;;;;15.06;55.45;100765.72;1041762;28;632;-69
2022/04/12 04:04:02;;;;;;;;;;;;;;;15.22;54.66;100767.97;1041682;28;619;-69
2022/04/12 04:04:52;;;;;;;;;;;;;;;15.33;54.61;100772.41;1041802;28;673;-69
2022/04/12 04:05:43;;;;;;;;;;;;;;;15.43;53.72;100768.78;1041717;28;611;-70
2022/04/12 04:06:33;;;;;;;;;;;;;;;15.57;53.97;100767.63;1041816;28;677;-70
2022/04/12 04:07:24;;;;;;;;;;;;;;;15.63;53.45;100770.63;1041196;28;622;-69
2022/04/12 04:08:15;;;;;;;;;;;;;;;15.73;53.60;100767.16;1041112;28;685;-69
2022/04/12 04:09:05;;;;;;;;;;;;;;;15.85;53.40;100774.13;1041863;28;810;-68
2022/04/12 04:09:55;;;;;;;;;;;;;;;15.98;53.02;100769.34;1041850;28;602;-67
2022/04/12 04:10:46;;;;;;;;;;;;;;;16.06;52.58;100777.59;1041271;28;690;-68
2022/04/12 04:11:40;;;;;;;;;;;;;;;16.18;52.46;100778.34;1041785;28;703;-68
2022/04/12 04:12:30;;;;;;;;;;;;;;;16.27;51.95;100770.31;1041783;28;622;-67
2022/04/12 04:13:21;;;;;;;;;;;;;;;16.40;51.47;100769.19;1041220;28;693;-68
2022/04/12 04:14:12;;;;;;;;;;;;;;;16.41;51.65;100769.06;1041724;28;644;-67
2022/04/12 04:15:05;;;;;;;;;;;;;;;16.47;51.56;100765.81;1041730;28;669;-67
2022/04/12 04:15:56;;;;;;;;;;;;;;;16.58;51.42;100763.00;1041272;28;641;-67
2022/04/12 04:16:46;;;;;;;;;;;;;;;16.67;51.25;100762.16;1041766;28;630;-67
2022/04/12 04:17:37;;;;;;;;;;;;;;;16.72;50.97;100767.13;1041768;28;717;-68
2022/04/12 04:18:27;;;;;;;;;;;;;;;16.76;50.73;100760.47;1041699;28;647;-69
2022/04/12 04:19:17;;;;;;;;;;;;;;;16.84;50.52;100765.16;1041801;28;602;-71
2022/04/12 04:20:08;;;;;;;;;;;;;;;16.91;50.97;100759.06;1041974;28;634;-72
2022/04/12 04:20:58;;;;;;;;;;;;;;;16.95;50.59;100756.94;1041764;28;630;-70
2022/04/12 04:21:49;;;;;;;;;;;;;;;16.99;50.53;100764.59;1040948;28;681;-70
2022/04/12 04:22:40;;;;;;;;;;;;;;;16.99;50.30;100769.97;1041482;28;657;-70
2022/04/12 04:23:31;;;;;;;;;;;;;;;17.02;50.14;100762.63;1037221;28;647;-69
2022/04/12 04:24:21;;;;;;;;;;;;;;;17.02;50.20;100764.28;1040739;28;1596;-69
2022/04/12 04:25:12;;;;;;;;;;;;;;;17.05;50.36;100759.59;1040111;28;1620;-69
2022/04/12 04:26:02;;;;;;;;;;;;;;;17.13;50.60;100763.31;1040803;28;612;-70
2022/04/12 04:26:55;;;;;;;;;;;;;;;17.13;50.66;100774.06;1041591;28;649;-70
2022/04/12 04:27:45;;;;;;;;;;;;;;;17.16;50.50;100760.31;1040022;28;682;-69
2022/04/12 04:28:36;;;;;;;;;;;;;;;17.21;50.01;100755.34;1041523;28;1894;-70